KMLS/MLS METAR and TAF weather

Enter ICAO airport designator
Station Type Date Time Source
KMLS METAR 2020/11/28 18:53 UTC NOAA

KMLS 281853Z AUTO 25017KT 10SM CLR 10/M09 A2990 RMK AO2 SLP140 T01001089 $


Station Type Date Time Source
KMLS Decoded METAR 2020/11/28 18:53 UTC NOAA

MILES CITY WILEY FIELD, MT, United States (KMLS) 46-26N 105-53W 801M
Nov 28, 2020 - 01:53 PM EST / 2020.11.28 1853 UTC
Wind: from the WSW (250 degrees) at 20 MPH (17 KT):0
Visibility: 10 mile(s):0
Sky conditions: clear
Temperature: 50.0 F (10.0 C)
Dew Point: 16.0 F (-8.9 C)
Relative Humidity: 25%
Pressure (altimeter): 29.9 in. Hg (1012 hPa)
ob: KMLS 281853Z AUTO 25017KT 10SM CLR 10/M09 A2990 RMK AO2 SLP140 T01001089
cycle: 19

Station Type Date Time Source
KMLS TAF 2020/11/28 18:22 UTC NOAA

TAF KMLS 281720Z 2818/2918 27008KT P6SM SCT200
FM282000 31018G28KT P6SM SCT100 BKN200
FM290300 32012KT P6SM SCT100 BKN200

Example: see airport list